createdAt,value
2018-09-23T00:00:12.783Z,96745.21
2018-09-23T00:02:41.172Z,96748.70
2018-09-23T00:05:09.552Z,96750.30
2018-09-23T00:07:37.879Z,96752.00
2018-09-23T00:10:06.357Z,96742.47
2018-09-23T00:12:34.703Z,96746.17
2018-09-23T00:15:03.063Z,96759.00
2018-09-23T00:17:31.467Z,96759.52
2018-09-23T00:19:59.828Z,96753.50
2018-09-23T00:22:28.251Z,96750.83
2018-09-23T00:24:56.617Z,96751.83
2018-09-23T00:27:25.013Z,96757.84
2018-09-23T00:29:53.351Z,96766.76
2018-09-23T00:32:23.727Z,96765.27
2018-09-23T00:34:52.159Z,96766.42
2018-09-23T00:37:20.744Z,96766.61
2018-09-23T00:39:49.267Z,96768.45
2018-09-23T00:42:17.631Z,96767.13
2018-09-23T00:44:45.979Z,96772.77
2018-09-23T00:47:14.475Z,96775.50
2018-09-23T00:49:42.835Z,96772.38
2018-09-23T00:52:11.174Z,96774.78
2018-09-23T00:54:39.641Z,96762.03
2018-09-23T00:57:08.065Z,96757.91
2018-09-23T00:59:37.421Z,96762.61
2018-09-23T01:02:05.815Z,96767.97
2018-09-23T01:04:34.209Z,96765.00
2018-09-23T01:07:02.565Z,96753.30
2018-09-23T01:09:30.933Z,96757.18
2018-09-23T01:11:59.282Z,96755.21
2018-09-23T01:14:27.769Z,96744.19
2018-09-23T01:16:56.160Z,96745.39
2018-09-23T01:19:24.584Z,96738.33
2018-09-23T01:21:52.933Z,96742.33
2018-09-23T01:24:21.294Z,96735.09
2018-09-23T01:26:49.638Z,96727.86
2018-09-23T01:29:17.962Z,96727.55
2018-09-23T01:31:46.362Z,96720.19
2018-09-23T01:34:14.683Z,96715.25
2018-09-23T01:36:43.061Z,96708.33
2018-09-23T01:39:11.411Z,96715.63
2018-09-23T01:41:39.823Z,96712.63
2018-09-23T01:44:08.145Z,96715.37
2018-09-23T01:46:36.611Z,96706.85
2018-09-23T01:49:04.995Z,96705.60
2018-09-23T01:51:33.323Z,96709.84
2018-09-23T01:54:01.799Z,96707.09
2018-09-23T01:56:30.132Z,96700.25
2018-09-23T01:58:58.515Z,96699.31
2018-09-23T02:01:27.135Z,96693.06
2018-09-23T02:03:55.517Z,96702.66
2018-09-23T02:06:23.950Z,96706.14
2018-09-23T02:08:52.367Z,96706.48
2018-09-23T02:11:20.679Z,96702.47
2018-09-23T02:13:49.014Z,96700.73
2018-09-23T02:16:17.469Z,96697.77
2018-09-23T02:18:45.857Z,96695.69
2018-09-23T02:21:14.288Z,96685.39
2018-09-23T02:23:42.635Z,96686.91
2018-09-23T02:26:10.993Z,96684.77
2018-09-23T02:28:39.311Z,96680.88
2018-09-23T02:31:07.857Z,96681.27
2018-09-23T02:33:36.190Z,96673.83
2018-09-23T02:36:04.547Z,96689.65
2018-09-23T02:38:32.928Z,96678.23
2018-09-23T02:41:01.261Z,96667.56
2018-09-23T02:43:29.605Z,96666.72
2018-09-23T02:45:57.957Z,96660.20
2018-09-23T02:48:26.307Z,96663.50
2018-09-23T02:50:54.645Z,96658.98
2018-09-23T02:53:23.103Z,96656.50
2018-09-23T02:55:51.420Z,96657.09
2018-09-23T02:58:19.779Z,96651.94
2018-09-23T03:00:48.150Z,96641.78
2018-09-23T03:03:16.587Z,96640.34
2018-09-23T03:05:45.019Z,96644.08
2018-09-23T03:08:13.729Z,96643.11
2018-09-23T03:10:42.085Z,96639.19
2018-09-23T03:13:10.463Z,96632.92
2018-09-23T03:15:38.865Z,96625.11
2018-09-23T03:18:07.248Z,96625.17
2018-09-23T03:20:35.605Z,96620.03
2018-09-23T03:23:04.091Z,96615.59
2018-09-23T03:25:33.494Z,96614.62
2018-09-23T03:28:01.879Z,96605.30
2018-09-23T03:30:30.243Z,96592.37
2018-09-23T03:32:58.659Z,96585.95
2018-09-23T03:35:26.987Z,96587.17
2018-09-23T03:37:55.475Z,96576.44
2018-09-23T03:40:23.805Z,96576.69
2018-09-23T03:42:52.194Z,96579.16
2018-09-23T03:45:20.545Z,96578.80
2018-09-23T03:47:48.879Z,96579.43
2018-09-23T03:50:17.258Z,96574.92
2018-09-23T03:52:45.632Z,96564.37
2018-09-23T03:55:14.140Z,96573.52
2018-09-23T03:57:42.478Z,96573.00
2018-09-23T04:00:10.880Z,96561.64
2018-09-23T04:02:39.208Z,96548.47
2018-09-23T04:05:07.579Z,96546.50
2018-09-23T04:07:36.029Z,96542.69
2018-09-23T04:10:04.447Z,96537.17
2018-09-23T04:12:32.776Z,96531.00
2018-09-23T04:15:01.140Z,96526.37
2018-09-23T04:17:29.502Z,96523.92
2018-09-23T04:19:57.875Z,96520.48
2018-09-23T04:22:26.262Z,96521.81
2018-09-23T04:24:54.596Z,96519.48
2018-09-23T04:27:22.929Z,96519.27
2018-09-23T04:29:51.370Z,96515.48
2018-09-23T04:32:19.692Z,96512.19
2018-09-23T04:34:48.060Z,96512.48
2018-09-23T04:37:16.412Z,96506.16
2018-09-23T04:39:44.752Z,96498.61
2018-09-23T04:42:13.089Z,96502.61
2018-09-23T04:44:41.476Z,96494.21
2018-09-23T04:47:09.808Z,96491.47
2018-09-23T04:49:38.140Z,96495.61
2018-09-23T04:52:06.621Z,96494.28
2018-09-23T04:54:34.979Z,96493.44
2018-09-23T04:57:03.553Z,96501.83
2018-09-23T04:59:31.920Z,96493.51
2018-09-23T05:02:00.260Z,96486.84
2018-09-23T05:04:28.589Z,96489.52
2018-09-23T05:06:57.076Z,96481.70
2018-09-23T05:09:25.383Z,96478.63
2018-09-23T05:11:53.718Z,96481.92
2018-09-23T05:14:22.092Z,96480.15
2018-09-23T05:16:50.480Z,96466.64
2018-09-23T05:19:18.872Z,96461.95
2018-09-23T05:21:47.292Z,96464.61
2018-09-23T05:24:15.627Z,96472.30
2018-09-23T05:26:43.990Z,96458.32
2018-09-23T05:29:12.363Z,96468.49
2018-09-23T05:31:40.845Z,96454.28
2018-09-23T05:34:09.727Z,96447.41
2018-09-23T05:36:38.131Z,96442.15
2018-09-23T05:39:08.201Z,96448.00
2018-09-23T05:41:36.824Z,96441.85
2018-09-23T05:44:05.287Z,96445.08
2018-09-23T05:46:33.579Z,96437.53
2018-09-23T05:49:01.919Z,96424.02
2018-09-23T05:51:30.299Z,96425.68
2018-09-23T05:53:58.769Z,96422.17
2018-09-23T05:56:27.135Z,96418.17
2018-09-23T05:58:55.521Z,96422.69
2018-09-23T06:01:23.895Z,96405.97
2018-09-23T06:03:52.223Z,96394.24
2018-09-23T06:06:20.621Z,96402.87
2018-09-23T06:08:48.991Z,96396.47
2018-09-23T06:11:17.425Z,96395.84
2018-09-23T06:13:45.843Z,96393.88
2018-09-23T06:16:14.191Z,96385.89
2018-09-23T06:18:42.609Z,96391.73
2018-09-23T06:21:10.995Z,96389.93
2018-09-23T06:23:39.805Z,96392.73
2018-09-23T06:26:08.384Z,96393.25
2018-09-23T06:28:36.799Z,96389.48
2018-09-23T06:31:05.319Z,96383.46
2018-09-23T06:33:33.696Z,96381.13
2018-09-23T06:36:02.085Z,96381.94
2018-09-23T06:38:30.433Z,96387.93
2018-09-23T06:40:58.819Z,96378.94
2018-09-23T06:43:27.302Z,96369.73
2018-09-23T06:45:55.656Z,96384.19
2018-09-23T06:48:23.995Z,96372.32
2018-09-23T06:50:52.391Z,96376.23
2018-09-23T06:53:20.754Z,96364.44
2018-09-23T06:55:49.108Z,96367.63
2018-09-23T06:58:17.484Z,96366.10
2018-09-23T07:00:45.860Z,96362.41
2018-09-23T07:03:14.187Z,96368.17
2018-09-23T07:05:42.649Z,96361.66
2018-09-23T07:08:11.045Z,96350.92
2018-09-23T07:10:39.961Z,96340.56
2018-09-23T07:13:08.369Z,96342.74
2018-09-23T07:15:36.799Z,96355.84
2018-09-23T07:18:05.247Z,96359.45
2018-09-23T07:20:34.321Z,96349.95
2018-09-23T07:23:02.657Z,96355.71
2018-09-23T07:25:31.039Z,96345.98
2018-09-23T07:27:59.437Z,96335.84
2018-09-23T07:30:27.777Z,96326.41
2018-09-23T07:32:56.136Z,96313.20
2018-09-23T07:35:24.526Z,96327.66
2018-09-23T07:37:52.869Z,96316.59
2018-09-23T07:40:21.209Z,96304.41
2018-09-23T07:42:49.618Z,96304.84
2018-09-23T07:45:17.980Z,96293.09
2018-09-23T07:47:46.332Z,96291.58
2018-09-23T07:50:14.747Z,96301.05
2018-09-23T07:52:43.102Z,96299.11
2018-09-23T07:55:11.496Z,96306.83
2018-09-23T07:57:40.029Z,96308.39
2018-09-23T08:00:08.400Z,96296.30
2018-09-23T08:02:36.748Z,96289.55
2018-09-23T08:05:05.164Z,96294.78
2018-09-23T08:07:33.540Z,96283.59
2018-09-23T08:10:01.885Z,96293.12
2018-09-23T08:12:30.379Z,96299.17
2018-09-23T08:14:59.003Z,96299.69
2018-09-23T08:17:27.108Z,96289.02
2018-09-23T08:19:55.575Z,96290.97
2018-09-23T08:22:23.872Z,96298.88
2018-09-23T08:24:52.255Z,96297.88
2018-09-23T08:27:20.608Z,96287.02
2018-09-23T08:29:48.974Z,96295.63
2018-09-23T08:32:17.307Z,96302.07
2018-09-23T08:34:45.689Z,96292.25
2018-09-23T08:37:14.038Z,96301.16
2018-09-23T08:39:42.431Z,96292.05
2018-09-23T08:42:10.799Z,96276.30
2018-09-23T08:44:39.159Z,96289.02
2018-09-23T08:47:07.520Z,96288.41
2018-09-23T08:49:35.901Z,96287.69
2018-09-23T08:52:04.311Z,96282.37
2018-09-23T08:54:32.640Z,96276.73
2018-09-23T08:57:01.008Z,96288.83
2018-09-23T08:59:29.387Z,96284.41
2018-09-23T09:01:57.749Z,96286.58
2018-09-23T09:04:26.128Z,96285.26
2018-09-23T09:06:55.693Z,96289.27
2018-09-23T09:09:24.123Z,96294.38
2018-09-23T09:11:52.607Z,96289.77
2018-09-23T09:14:20.907Z,96274.97
2018-09-23T09:16:49.263Z,96270.53
2018-09-23T09:19:17.733Z,96266.53
2018-09-23T09:21:46.076Z,96275.13
2018-09-23T09:24:14.407Z,96269.80
2018-09-23T09:26:42.842Z,96268.14
2018-09-23T09:29:11.186Z,96253.94
2018-09-23T09:31:39.590Z,96264.13
2018-09-23T09:34:08.237Z,96269.44
2018-09-23T09:36:36.603Z,96276.81
2018-09-23T09:39:07.831Z,96273.45
2018-09-23T09:41:36.321Z,96281.95
2018-09-23T09:44:04.908Z,96273.28
2018-09-23T09:46:33.285Z,96275.95
2018-09-23T09:49:01.651Z,96284.14
2018-09-23T09:51:29.982Z,96275.99
2018-09-23T09:53:58.317Z,96268.37
2018-09-23T09:56:26.668Z,96278.00
2018-09-23T09:58:55.036Z,96268.26
2018-09-23T10:01:23.373Z,96270.05
2018-09-23T10:03:51.885Z,96260.14
2018-09-23T10:06:20.166Z,96262.76
2018-09-23T10:08:48.506Z,96250.66
2018-09-23T10:11:16.999Z,96254.61
2018-09-23T10:13:45.355Z,96263.00
2018-09-23T10:16:13.688Z,96250.95
2018-09-23T10:18:42.119Z,96250.25
2018-09-23T10:21:10.643Z,96250.67
2018-09-23T10:23:39.074Z,96245.52
2018-09-23T10:26:07.462Z,96246.39
2018-09-23T10:28:35.837Z,96239.53
2018-09-23T10:31:04.227Z,96247.72
2018-09-23T10:33:32.677Z,96222.56
2018-09-23T10:36:01.116Z,96224.92
2018-09-23T10:38:29.530Z,96208.69
2018-09-23T10:40:57.857Z,96206.02
2018-09-23T10:43:26.231Z,96192.72
2018-09-23T10:45:54.586Z,96193.09
2018-09-23T10:48:23.083Z,96182.34
2018-09-23T10:50:51.720Z,96180.60
2018-09-23T10:53:20.099Z,96166.64
2018-09-23T10:55:48.583Z,96169.58
2018-09-23T10:58:16.932Z,96164.80
2018-09-23T11:00:45.270Z,96153.79
2018-09-23T11:03:13.628Z,96157.81
2018-09-23T11:05:41.969Z,96161.53
2018-09-23T11:08:10.318Z,96154.91
2018-09-23T11:10:38.766Z,96150.19
2018-09-23T11:13:07.236Z,96134.24
2018-09-23T11:15:35.624Z,96122.39
2018-09-23T11:18:04.141Z,96112.14
2018-09-23T11:20:32.472Z,96110.89
2018-09-23T11:23:00.804Z,96116.70
2018-09-23T11:25:29.177Z,96109.75
2018-09-23T11:27:57.540Z,96094.88
2018-09-23T11:30:25.907Z,96087.73
2018-09-23T11:32:54.269Z,96080.08
2018-09-23T11:35:22.616Z,96088.42
2018-09-23T11:37:50.956Z,96087.56
2018-09-23T11:40:19.324Z,96077.64
2018-09-23T11:42:47.677Z,96077.07
2018-09-23T11:45:16.026Z,96080.66
2018-09-23T11:47:44.398Z,96068.05
2018-09-23T11:50:12.780Z,96064.41
2018-09-23T11:52:41.207Z,96049.91
2018-09-23T11:55:09.600Z,96046.98
2018-09-23T11:57:37.960Z,96045.59
2018-09-23T12:00:07.223Z,96034.07
2018-09-23T12:02:35.769Z,96039.09
2018-09-23T12:05:04.152Z,96021.30
2018-09-23T12:07:32.483Z,96013.81
2018-09-23T12:10:00.961Z,96010.91
2018-09-23T12:12:29.395Z,96008.47
2018-09-23T12:14:57.795Z,95998.73
2018-09-23T12:17:26.153Z,95993.72
2018-09-23T12:19:54.546Z,95990.83
2018-09-23T12:22:22.881Z,95989.94
2018-09-23T12:24:51.305Z,95991.45
2018-09-23T12:27:19.680Z,95987.53
2018-09-23T12:29:48.025Z,95984.59
2018-09-23T12:32:16.411Z,95974.27
2018-09-23T12:34:44.820Z,95961.94
2018-09-23T12:37:14.342Z,95962.87
2018-09-23T12:39:42.801Z,95953.52
2018-09-23T12:42:11.112Z,95951.45
2018-09-23T12:44:39.455Z,95942.91
2018-09-23T12:47:07.863Z,95936.44
2018-09-23T12:49:36.195Z,95923.98
2018-09-23T12:52:04.539Z,95917.27
2018-09-23T12:54:32.949Z,95908.09
2018-09-23T12:57:01.307Z,95892.45
2018-09-23T12:59:29.638Z,95896.78
2018-09-23T13:01:58.004Z,95881.40
2018-09-23T13:04:26.336Z,95880.57
2018-09-23T13:06:54.687Z,95870.56
2018-09-23T13:09:23.168Z,95871.66
2018-09-23T13:11:51.553Z,95861.13
2018-09-23T13:14:19.908Z,95867.61
2018-09-23T13:16:48.307Z,95854.37
2018-09-23T13:19:16.735Z,95854.10
2018-09-23T13:21:45.150Z,95840.05
2018-09-23T13:24:13.600Z,95832.47
2018-09-23T13:26:41.999Z,95834.09
2018-09-23T13:29:10.464Z,95827.30
2018-09-23T13:31:38.878Z,95809.17
2018-09-23T13:34:07.280Z,95802.42
2018-09-23T13:36:35.758Z,95793.21
2018-09-23T13:39:05.248Z,95794.48
2018-09-23T13:41:33.614Z,95794.80
2018-09-23T13:44:01.945Z,95791.07
2018-09-23T13:46:30.344Z,95780.27
2018-09-23T13:48:58.772Z,95775.39
2018-09-23T13:51:27.490Z,95771.32
2018-09-23T13:53:55.949Z,95765.89
2018-09-23T13:56:24.389Z,95763.45
2018-09-23T13:58:52.807Z,95756.70
2018-09-23T14:01:21.180Z,95755.63
2018-09-23T14:03:49.772Z,95741.59
2018-09-23T14:06:18.140Z,95738.64
2018-09-23T14:08:46.528Z,95741.87
2018-09-23T14:11:14.884Z,95728.10
2018-09-23T14:13:43.256Z,95712.70
2018-09-23T14:16:11.727Z,95707.24
2018-09-23T14:18:40.131Z,95711.35
2018-09-23T14:21:08.466Z,95697.03
2018-09-23T14:23:36.848Z,95695.16
2018-09-23T14:26:05.279Z,95686.49
2018-09-23T14:28:33.599Z,95680.00
2018-09-23T14:31:01.999Z,95677.31
2018-09-23T14:33:30.335Z,95662.98
2018-09-23T14:35:58.687Z,95659.73
2018-09-23T14:38:27.131Z,95660.55
2018-09-23T14:40:55.692Z,95657.27
2018-09-23T14:43:24.067Z,95655.11
2018-09-23T14:45:52.463Z,95642.41
2018-09-23T14:48:20.930Z,95633.83
2018-09-23T14:50:50.030Z,95633.53
2018-09-23T14:53:24.746Z,95630.83
2018-09-23T14:55:53.132Z,95623.77
2018-09-23T14:58:21.490Z,95616.20
2018-09-23T15:00:50.000Z,95605.64
2018-09-23T15:03:18.928Z,95612.11
2018-09-23T15:05:47.307Z,95595.87
2018-09-23T15:08:15.748Z,95583.45
2018-09-23T15:10:44.144Z,95581.28
2018-09-23T15:13:12.654Z,95574.78
2018-09-23T15:15:41.065Z,95567.20
2018-09-23T15:18:09.468Z,95562.31
2018-09-23T15:20:37.816Z,95563.10
2018-09-23T15:23:06.286Z,95554.72
2018-09-23T15:25:34.653Z,95528.20
2018-09-23T15:28:03.040Z,95536.84
2018-09-23T15:30:31.484Z,95525.73
2018-09-23T15:33:00.752Z,95517.59
2018-09-23T15:35:29.098Z,95513.55
2018-09-23T15:37:57.568Z,95509.52
2018-09-23T15:40:25.908Z,95509.83
2018-09-23T15:42:54.280Z,95500.11
2018-09-23T15:45:22.734Z,95495.78
2018-09-23T15:47:51.076Z,95479.02
2018-09-23T15:50:19.442Z,95477.69
2018-09-23T15:52:47.842Z,95479.31
2018-09-23T15:55:16.196Z,95475.82
2018-09-23T15:57:44.556Z,95481.52
2018-09-23T16:00:12.977Z,95484.52
2018-09-23T16:02:41.312Z,95492.41
2018-09-23T16:05:09.676Z,95492.45
2018-09-23T16:07:38.108Z,95486.81
2018-09-23T16:10:06.472Z,95486.02
2018-09-23T16:12:34.900Z,95479.02
2018-09-23T16:15:03.331Z,95484.72
2018-09-23T16:17:31.935Z,95491.44
2018-09-23T16:20:00.321Z,95483.07
2018-09-23T16:22:28.726Z,95480.11
2018-09-23T16:24:57.634Z,95473.62
2018-09-23T16:27:25.989Z,95470.94
2018-09-23T16:29:54.859Z,95473.64
2018-09-23T16:32:23.220Z,95464.22
2018-09-23T16:34:51.716Z,95456.38
2018-09-23T16:37:20.139Z,95457.22
2018-09-23T16:39:48.487Z,95447.48
2018-09-23T16:42:16.854Z,95448.04
2018-09-23T16:44:45.252Z,95443.72
2018-09-23T16:47:13.684Z,95435.09
2018-09-23T16:49:42.064Z,95433.48
2018-09-23T16:52:10.472Z,95422.12
2018-09-23T16:54:38.972Z,95425.91
2018-09-23T16:57:07.360Z,95429.95
2018-09-23T16:59:35.766Z,95426.15
2018-09-23T17:02:04.169Z,95428.86
2018-09-23T17:04:32.518Z,95422.34
2018-09-23T17:07:00.915Z,95429.34
2018-09-23T17:09:29.275Z,95424.73
2018-09-23T17:11:57.642Z,95425.27
2018-09-23T17:14:26.263Z,95414.97
2018-09-23T17:16:54.657Z,95418.73
2018-09-23T17:19:23.163Z,95420.08
2018-09-23T17:21:51.627Z,95426.81
2018-09-23T17:24:20.009Z,95428.42
2018-09-23T17:26:48.355Z,95424.38
2018-09-23T17:29:16.990Z,95426.81
2018-09-23T17:31:45.377Z,95421.14
2018-09-23T17:34:13.771Z,95422.20
2018-09-23T17:36:42.191Z,95407.64
2018-09-23T17:39:11.551Z,95403.03
2018-09-23T17:41:40.602Z,95410.02
2018-09-23T17:44:09.317Z,95411.88
2018-09-23T17:46:37.955Z,95412.68
2018-09-23T17:49:06.387Z,95417.81
2018-09-23T17:51:34.800Z,95424.28
2018-09-23T17:54:03.335Z,95420.25
2018-09-23T17:56:31.710Z,95426.98
2018-09-23T17:59:00.283Z,95426.41
2018-09-23T18:01:28.826Z,95429.61
2018-09-23T18:03:57.183Z,95436.88
2018-09-23T18:06:25.653Z,95433.34
2018-09-23T18:08:54.377Z,95433.61
2018-09-23T18:11:22.821Z,95437.64
2018-09-23T18:13:52.291Z,95438.72
2018-09-23T18:16:20.663Z,95431.96
2018-09-23T18:18:49.265Z,95429.02
2018-09-23T18:21:17.904Z,95426.32
2018-09-23T18:23:46.245Z,95438.17
2018-09-23T18:26:14.787Z,95445.97
2018-09-23T18:28:43.304Z,95441.38
2018-09-23T18:31:11.700Z,95439.23
2018-09-23T18:33:40.094Z,95452.19
2018-09-23T18:36:08.721Z,95457.56
2018-09-23T18:38:37.125Z,95458.08
2018-09-23T18:41:05.827Z,95459.42
2018-09-23T18:43:34.423Z,95465.91
2018-09-23T18:46:02.744Z,95455.18
2018-09-23T18:48:31.136Z,95461.73
2018-09-23T18:50:59.712Z,95464.20
2018-09-23T18:53:28.068Z,95458.86
2018-09-23T18:55:56.421Z,95466.39
2018-09-23T18:58:25.048Z,95471.52
2018-09-23T19:00:53.444Z,95467.22
2018-09-23T19:03:21.880Z,95459.75
2018-09-23T19:05:50.396Z,95464.08
2018-09-23T19:08:18.784Z,95465.68
2018-09-23T19:10:47.154Z,95464.88
2018-09-23T19:13:22.316Z,95484.00
2018-09-23T19:15:56.077Z,95491.28
2018-09-23T19:18:24.564Z,95493.17
2018-09-23T19:20:52.990Z,95514.19
2018-09-23T19:23:21.688Z,95505.04
2018-09-23T19:25:50.088Z,95516.66
2018-09-23T19:28:19.322Z,95523.42
2018-09-23T19:30:47.908Z,95531.80
2018-09-23T19:33:16.989Z,95538.82
2018-09-23T19:35:45.488Z,95529.90
2018-09-23T19:38:13.963Z,95543.09
2018-09-23T19:40:42.651Z,95570.33
2018-09-23T19:43:11.185Z,95582.17
2018-09-23T19:45:39.657Z,95597.80
2018-09-23T19:48:08.094Z,95703.72
2018-09-23T19:50:36.645Z,95682.89
2018-09-23T19:53:05.107Z,95655.91
2018-09-23T19:55:33.733Z,95734.81
2018-09-23T19:58:02.114Z,95787.88
2018-09-23T20:00:31.223Z,95805.02
2018-09-23T20:02:59.784Z,95834.53
2018-09-23T20:05:34.923Z,95846.63
2018-09-23T20:08:03.571Z,95865.66
2018-09-23T20:10:32.566Z,95883.62
2018-09-23T20:13:00.972Z,95972.32
2018-09-23T20:15:29.480Z,96028.06
2018-09-23T20:17:58.661Z,96034.42
2018-09-23T20:20:27.505Z,96046.63
2018-09-23T20:22:56.013Z,96040.73
2018-09-23T20:25:24.480Z,96079.17
2018-09-23T20:27:52.961Z,96091.33
2018-09-23T20:30:21.403Z,96100.27
2018-09-23T20:32:49.877Z,96097.59
2018-09-23T20:35:18.296Z,96095.73
2018-09-23T20:37:46.840Z,96102.62
2018-09-23T20:40:15.164Z,96095.77
2018-09-23T20:42:43.543Z,96111.12
2018-09-23T20:45:12.139Z,96116.02
2018-09-23T20:47:40.621Z,96129.70
2018-09-23T20:50:08.969Z,96144.19
2018-09-23T20:52:37.445Z,96171.94
2018-09-23T20:55:06.092Z,96170.03
2018-09-23T20:57:34.470Z,96162.89
2018-09-23T21:00:03.031Z,96158.13
2018-09-23T21:02:31.379Z,96156.98
2018-09-23T21:04:59.885Z,96183.48
2018-09-23T21:07:28.456Z,96197.97
2018-09-23T21:09:56.822Z,96197.23
2018-09-23T21:12:25.272Z,96193.48
2018-09-23T21:14:53.843Z,96206.18
2018-09-23T21:17:23.293Z,96217.13
2018-09-23T21:19:52.201Z,96222.08
2018-09-23T21:22:20.637Z,96212.36
2018-09-23T21:24:49.084Z,96234.45
2018-09-23T21:27:17.429Z,96252.56
2018-09-23T21:29:45.935Z,96270.47
2018-09-23T21:32:14.591Z,96270.88
2018-09-23T21:34:42.955Z,96258.56
2018-09-23T21:37:11.579Z,96268.21
2018-09-23T21:39:40.028Z,96260.01
2018-09-23T21:42:09.037Z,96269.75
2018-09-23T21:44:37.528Z,96299.12
2018-09-23T21:47:05.913Z,96299.31
2018-09-23T21:49:34.232Z,96311.00
2018-09-23T21:52:02.698Z,96318.29
2018-09-23T21:54:31.031Z,96350.73
2018-09-23T21:56:59.352Z,96367.14
2018-09-23T21:59:27.890Z,96368.47
2018-09-23T22:01:56.250Z,96379.02
2018-09-23T22:04:24.684Z,96388.73
2018-09-23T22:06:53.239Z,96388.55
2018-09-23T22:09:21.628Z,96408.38
2018-09-23T22:11:50.003Z,96418.47
2018-09-23T22:14:18.587Z,96448.35
2018-09-23T22:16:46.987Z,96434.34
2018-09-23T22:19:15.360Z,96446.06
2018-09-23T22:21:43.922Z,96441.30
2018-09-23T22:24:12.363Z,96423.22
2018-09-23T22:26:40.687Z,96414.61
2018-09-23T22:29:09.087Z,96426.34
2018-09-23T22:31:37.461Z,96448.62
2018-09-23T22:34:05.835Z,96466.37
2018-09-23T22:36:34.268Z,96501.02
2018-09-23T22:39:02.663Z,96532.47
2018-09-23T22:41:31.069Z,96569.86
2018-09-23T22:43:59.481Z,96612.27
2018-09-23T22:46:27.959Z,96600.47
2018-09-23T22:48:56.288Z,96597.56
2018-09-23T22:51:24.779Z,96612.08
2018-09-23T22:53:53.181Z,96606.14
2018-09-23T22:56:21.549Z,96615.39
2018-09-23T22:58:50.111Z,96628.69
2018-09-23T23:01:18.477Z,96645.40
2018-09-23T23:03:46.817Z,96640.54
2018-09-23T23:06:15.453Z,96644.70
2018-09-23T23:08:43.921Z,96650.56
2018-09-23T23:11:12.326Z,96636.44
2018-09-23T23:13:40.841Z,96615.11
2018-09-23T23:16:09.211Z,96598.66
2018-09-23T23:18:37.569Z,96587.63
2018-09-23T23:21:06.093Z,96610.83
2018-09-23T23:23:34.441Z,96619.15
2018-09-23T23:26:02.823Z,96658.09
2018-09-23T23:28:31.270Z,96671.32
2018-09-23T23:30:59.679Z,96674.97
2018-09-23T23:33:28.191Z,96692.73
2018-09-23T23:35:56.659Z,96712.81
2018-09-23T23:38:25.155Z,96723.16
2018-09-23T23:40:53.496Z,96723.72
2018-09-23T23:43:21.878Z,96733.21
2018-09-23T23:45:50.215Z,96733.34
2018-09-23T23:48:18.620Z,96755.14
2018-09-23T23:50:47.075Z,96770.81
2018-09-23T23:53:15.420Z,96772.10
2018-09-23T23:55:43.826Z,96779.95
2018-09-23T23:58:12.240Z,96774.67
